createdAt,value
2022-07-27T00:00:59.238Z,1.70
2022-07-27T00:03:26.675Z,1.30
2022-07-27T00:05:55.257Z,1.23
2022-07-27T00:08:23.538Z,1.53
2022-07-27T00:15:34.520Z,1.90
2022-07-27T00:18:02.087Z,1.90
2022-07-27T00:20:30.545Z,1.30
2022-07-27T00:22:59.567Z,1.90
2022-07-27T00:25:27.006Z,1.63
2022-07-27T00:27:56.217Z,1.70
2022-07-27T00:30:24.440Z,1.50
2022-07-27T00:32:53.656Z,1.60
2022-07-27T00:40:20.778Z,2.00
2022-07-27T00:42:47.767Z,1.50
2022-07-27T00:45:14.814Z,1.30
2022-07-27T00:47:42.475Z,1.30
2022-07-27T00:50:10.523Z,1.37
2022-07-27T00:52:38.438Z,1.47
2022-07-27T00:55:07.127Z,1.50
2022-07-27T01:02:37.161Z,1.50
2022-07-27T01:05:05.196Z,1.60
2022-07-27T01:07:33.986Z,1.50
2022-07-27T01:10:01.357Z,1.77
2022-07-27T01:12:31.077Z,1.80
2022-07-27T01:14:59.378Z,1.60
2022-07-27T01:17:30.158Z,1.60
2022-07-27T01:24:33.936Z,1.47
2022-07-27T01:27:01.867Z,1.30
2022-07-27T01:29:31.217Z,1.50
2022-07-27T01:31:59.187Z,1.73
2022-07-27T01:34:26.555Z,1.43
2022-07-27T01:36:59.847Z,1.30
2022-07-27T01:39:27.577Z,1.57
2022-07-27T01:46:04.157Z,1.37
2022-07-27T01:48:33.956Z,1.40
2022-07-27T01:51:01.882Z,1.63
2022-07-27T01:53:29.527Z,1.40
2022-07-27T01:55:56.910Z,1.20
2022-07-27T01:58:24.257Z,1.43
2022-07-27T02:00:51.486Z,1.97
2022-07-27T02:08:15.557Z,1.60
2022-07-27T02:10:57.087Z,2.23
2022-07-27T02:13:25.017Z,2.10
2022-07-27T02:15:54.886Z,1.70
2022-07-27T02:18:33.153Z,1.70
2022-07-27T02:21:05.577Z,1.40
2022-07-27T02:23:35.824Z,1.80
2022-07-27T02:30:17.750Z,1.70
2022-07-27T02:32:45.573Z,1.90
2022-07-27T02:35:18.605Z,2.30
2022-07-27T02:37:48.636Z,1.40
2022-07-27T02:40:16.825Z,1.93
2022-07-27T02:42:44.407Z,1.67
2022-07-27T02:45:13.134Z,2.33
2022-07-27T02:52:45.485Z,1.70
2022-07-27T02:55:12.985Z,2.07
2022-07-27T02:57:41.408Z,1.37
2022-07-27T03:00:12.719Z,2.13
2022-07-27T03:02:41.353Z,1.70
2022-07-27T03:05:13.244Z,1.97
2022-07-27T03:07:40.666Z,1.90
2022-07-27T03:12:47.786Z,2.03
2022-07-27T03:15:18.178Z,1.47
2022-07-27T03:17:47.438Z,2.03
2022-07-27T03:20:14.845Z,2.63
2022-07-27T03:22:42.505Z,1.60
2022-07-27T03:25:10.596Z,1.50
2022-07-27T03:27:38.773Z,1.77
2022-07-27T03:34:44.716Z,1.50
2022-07-27T03:37:12.496Z,2.43
2022-07-27T03:39:39.743Z,1.90
2022-07-27T03:42:07.420Z,1.93
2022-07-27T03:44:34.982Z,1.80
2022-07-27T03:47:02.324Z,1.90
2022-07-27T03:49:33.565Z,2.63
2022-07-27T03:54:40.588Z,1.70
2022-07-27T03:57:08.533Z,2.10
2022-07-27T03:59:36.063Z,2.50
2022-07-27T04:02:03.767Z,2.83
2022-07-27T04:04:31.024Z,2.27
2022-07-27T04:06:59.464Z,2.13
2022-07-27T04:09:27.103Z,2.53
2022-07-27T04:16:53.434Z,3.10
2022-07-27T04:19:20.746Z,2.50
2022-07-27T04:21:48.325Z,2.50
2022-07-27T04:24:15.733Z,3.00
2022-07-27T04:26:43.477Z,2.50
2022-07-27T04:29:11.291Z,2.13
2022-07-27T04:31:38.653Z,2.33
2022-07-27T04:39:06.325Z,2.57
2022-07-27T04:41:34.917Z,3.30
2022-07-27T04:44:02.437Z,2.20
2022-07-27T04:46:30.364Z,2.10
2022-07-27T04:48:58.398Z,2.47
2022-07-27T04:51:26.815Z,2.50
2022-07-27T04:53:58.448Z,2.63
2022-07-27T05:01:35.307Z,2.30
2022-07-27T05:04:03.587Z,2.00
2022-07-27T05:06:32.485Z,1.90
2022-07-27T05:09:00.055Z,2.13
2022-07-27T05:11:27.894Z,1.90
2022-07-27T05:13:55.147Z,2.37
2022-07-27T05:16:28.003Z,2.13
2022-07-27T05:23:46.094Z,1.90
2022-07-27T05:26:13.557Z,1.40
2022-07-27T05:28:40.716Z,1.80
2022-07-27T05:31:10.456Z,2.00
2022-07-27T05:33:48.098Z,2.90
2022-07-27T05:36:19.493Z,1.80
2022-07-27T05:38:48.102Z,1.80
2022-07-27T05:46:20.002Z,2.33
2022-07-27T05:48:47.558Z,2.00
2022-07-27T05:51:17.643Z,1.80
2022-07-27T05:53:45.397Z,1.63
2022-07-27T05:56:14.295Z,2.07
2022-07-27T05:58:41.518Z,1.57
2022-07-27T06:01:15.140Z,2.43
2022-07-27T06:08:48.544Z,1.50
2022-07-27T06:11:15.980Z,1.70
2022-07-27T06:13:43.445Z,1.70
2022-07-27T06:16:12.343Z,1.63
2022-07-27T06:18:39.534Z,1.30
2022-07-27T06:21:06.836Z,1.43
2022-07-27T06:23:34.890Z,1.10
2022-07-27T06:31:08.536Z,1.40
2022-07-27T06:33:36.977Z,1.57
2022-07-27T06:36:05.211Z,1.27
2022-07-27T06:38:33.218Z,1.37
2022-07-27T06:41:01.446Z,1.30
2022-07-27T06:43:31.680Z,1.23
2022-07-27T06:45:59.855Z,1.23
2022-07-27T06:52:51.113Z,1.43
2022-07-27T06:55:18.237Z,1.17
2022-07-27T06:57:45.755Z,0.97
2022-07-27T07:00:15.269Z,0.97
2022-07-27T07:02:54.002Z,1.33
2022-07-27T07:05:22.647Z,1.23
2022-07-27T07:07:51.604Z,1.23
2022-07-27T07:15:18.748Z,1.30
2022-07-27T07:17:45.940Z,0.93
2022-07-27T07:20:13.958Z,1.00
2022-07-27T07:22:41.467Z,1.57
2022-07-27T07:25:09.467Z,1.00
2022-07-27T07:27:37.596Z,1.00
2022-07-27T07:30:06.343Z,1.10
2022-07-27T07:35:20.845Z,1.20
2022-07-27T07:37:50.680Z,1.60
2022-07-27T07:40:43.503Z,1.00
2022-07-27T07:43:06.892Z,1.40
2022-07-27T07:45:47.167Z,1.93
2022-07-27T07:48:21.179Z,0.80
2022-07-27T07:50:53.371Z,1.03
2022-07-27T07:57:34.523Z,1.30
2022-07-27T08:00:02.557Z,1.83
2022-07-27T08:02:30.610Z,1.27
2022-07-27T08:05:03.216Z,1.33
2022-07-27T08:07:33.387Z,1.10
2022-07-27T08:10:00.616Z,1.13
2022-07-27T08:12:32.214Z,1.17
2022-07-27T08:18:09.208Z,1.10
2022-07-27T08:20:36.644Z,1.13
2022-07-27T08:23:04.544Z,1.00
2022-07-27T08:25:33.184Z,1.30
2022-07-27T08:28:02.605Z,1.27
2022-07-27T08:30:32.974Z,1.23
2022-07-27T08:33:02.743Z,1.10
2022-07-27T08:38:13.087Z,1.00
2022-07-27T08:40:44.330Z,1.07
2022-07-27T08:43:18.632Z,1.20
2022-07-27T08:45:55.216Z,1.37
2022-07-27T08:48:24.844Z,1.17
2022-07-27T08:50:52.384Z,1.10
2022-07-27T08:53:21.562Z,1.20
2022-07-27T09:00:54.080Z,1.13
2022-07-27T09:03:23.284Z,1.60
2022-07-27T09:05:52.706Z,1.47
2022-07-27T09:08:24.430Z,2.33
2022-07-27T09:10:54.996Z,0.90
2022-07-27T09:13:26.122Z,1.13
2022-07-27T09:16:17.558Z,1.07
2022-07-27T09:18:58.808Z,1.00
2022-07-27T09:26:29.629Z,1.00
2022-07-27T09:29:01.573Z,1.07
2022-07-27T09:31:33.299Z,1.23
2022-07-27T09:34:02.809Z,0.90
2022-07-27T09:36:30.701Z,1.30
2022-07-27T09:39:04.475Z,0.90
2022-07-27T09:44:42.962Z,1.90
2022-07-27T09:47:26.249Z,1.23
2022-07-27T09:49:54.474Z,1.00
2022-07-27T09:52:27.864Z,1.03
2022-07-27T09:55:01.945Z,1.00
2022-07-27T09:57:30.085Z,0.90
2022-07-27T10:00:13.173Z,1.00
2022-07-27T10:07:12.912Z,1.00
2022-07-27T10:09:41.515Z,1.10
2022-07-27T10:12:09.870Z,1.03
2022-07-27T10:14:41.459Z,0.90
2022-07-27T10:17:10.719Z,0.80
2022-07-27T10:19:49.914Z,1.17
2022-07-27T10:22:54.369Z,1.13
2022-07-27T10:31:26.102Z,1.10
2022-07-27T10:33:56.834Z,1.40
2022-07-27T10:36:45.136Z,0.97
2022-07-27T10:39:24.915Z,1.20
2022-07-27T10:41:52.541Z,1.23
2022-07-27T10:44:29.692Z,0.90
2022-07-27T10:47:00.839Z,0.77
2022-07-27T10:54:11.921Z,1.10
2022-07-27T10:56:55.457Z,1.63
2022-07-27T11:02:42.465Z,1.10
2022-07-27T11:05:32.919Z,1.57
2022-07-27T11:13:40.554Z,1.10
2022-07-27T11:16:23.375Z,0.77
2022-07-27T11:19:06.379Z,1.00
2022-07-27T11:21:35.167Z,1.03
2022-07-27T11:24:05.798Z,1.30
2022-07-27T11:26:39.395Z,0.90
2022-07-27T11:29:18.249Z,1.20
2022-07-27T11:36:52.926Z,0.93
2022-07-27T11:42:17.659Z,1.00
2022-07-27T11:44:48.145Z,1.07
2022-07-27T11:50:06.814Z,1.27
2022-07-27T11:52:37.869Z,1.23
2022-07-27T11:55:12.946Z,1.00
2022-07-27T12:02:50.525Z,0.80
2022-07-27T12:05:24.568Z,0.90
2022-07-27T12:07:54.149Z,1.27
2022-07-27T12:10:22.407Z,0.80
2022-07-27T12:12:50.366Z,1.00
2022-07-27T12:15:44.292Z,1.20
2022-07-27T12:18:08.397Z,0.90
2022-07-27T12:23:31.368Z,1.10
2022-07-27T12:26:04.127Z,1.00
2022-07-27T12:28:36.029Z,0.80
2022-07-27T12:31:17.612Z,1.20
2022-07-27T12:33:46.062Z,0.93
2022-07-27T12:36:27.006Z,0.60
2022-07-27T12:38:57.526Z,0.80
2022-07-27T12:41:26.126Z,1.17
2022-07-27T12:48:22.470Z,1.20
2022-07-27T12:50:59.910Z,1.20
2022-07-27T12:53:31.297Z,1.10
2022-07-27T12:56:04.833Z,1.30
2022-07-27T12:58:33.227Z,0.93
2022-07-27T13:01:00.994Z,0.80
2022-07-27T13:03:30.105Z,1.00
2022-07-27T13:08:55.468Z,0.90
2022-07-27T13:11:22.828Z,0.80
2022-07-27T13:13:50.787Z,1.23
2022-07-27T13:16:18.735Z,0.70
2022-07-27T13:18:46.848Z,0.97
2022-07-27T13:21:17.160Z,0.70
2022-07-27T13:23:46.266Z,0.87
2022-07-27T13:26:17.851Z,0.73
2022-07-27T13:33:07.770Z,0.70
2022-07-27T13:35:35.109Z,1.17
2022-07-27T13:38:02.454Z,1.30
2022-07-27T13:40:29.488Z,0.70
2022-07-27T13:42:57.060Z,0.87
2022-07-27T13:45:24.600Z,1.10
2022-07-27T13:47:57.407Z,0.80
2022-07-27T13:53:05.029Z,0.90
2022-07-27T13:55:32.404Z,0.80
2022-07-27T13:58:01.597Z,0.60
2022-07-27T14:00:31.521Z,0.90
2022-07-27T14:02:59.599Z,0.67
2022-07-27T14:05:30.070Z,0.90
2022-07-27T14:07:59.138Z,1.10
2022-07-27T14:13:36.187Z,0.90
2022-07-27T14:16:06.691Z,1.00
2022-07-27T14:18:36.124Z,1.10
2022-07-27T14:21:06.878Z,0.87
2022-07-27T14:23:36.046Z,0.80
2022-07-27T14:26:05.488Z,0.80
2022-07-27T14:28:33.856Z,1.27
2022-07-27T14:35:22.598Z,1.00
2022-07-27T14:37:52.232Z,0.90
2022-07-27T14:40:20.808Z,0.90
2022-07-27T14:42:48.473Z,0.90
2022-07-27T14:45:22.027Z,1.57
2022-07-27T14:47:53.864Z,0.80
2022-07-27T14:50:46.458Z,0.93
2022-07-27T14:53:14.854Z,1.20
2022-07-27T14:58:24.107Z,1.03
2022-07-27T15:00:52.093Z,0.73
2022-07-27T15:03:20.810Z,0.80
2022-07-27T15:05:49.326Z,1.03
2022-07-27T15:08:18.504Z,1.10
2022-07-27T15:10:46.447Z,0.77
2022-07-27T15:13:15.466Z,1.13
2022-07-27T15:20:55.787Z,0.80
2022-07-27T15:23:38.185Z,0.60
2022-07-27T15:26:16.998Z,0.73
2022-07-27T15:28:44.876Z,0.70
2022-07-27T15:31:13.288Z,1.00
2022-07-27T15:33:42.335Z,0.90
2022-07-27T15:36:31.951Z,0.97
2022-07-27T15:39:01.872Z,0.73
2022-07-27T15:46:27.604Z,0.90
2022-07-27T15:48:58.431Z,0.80
2022-07-27T15:51:26.210Z,0.80
2022-07-27T15:53:54.182Z,0.90
2022-07-27T15:56:28.853Z,1.30
2022-07-27T15:58:56.665Z,0.70
2022-07-27T16:01:34.279Z,1.10
2022-07-27T16:09:10.234Z,0.70
2022-07-27T16:11:40.546Z,0.90
2022-07-27T16:14:08.930Z,0.73
2022-07-27T16:16:37.407Z,0.50
2022-07-27T16:19:12.854Z,1.23
2022-07-27T16:21:55.005Z,0.80
2022-07-27T16:24:38.343Z,0.63
2022-07-27T16:31:43.128Z,0.67
2022-07-27T16:34:11.675Z,1.00
2022-07-27T16:36:41.024Z,0.70
2022-07-27T16:39:11.500Z,0.70
2022-07-27T16:41:40.243Z,0.77
2022-07-27T16:44:07.722Z,0.90
2022-07-27T16:46:47.912Z,0.60
2022-07-27T16:52:32.683Z,1.03
2022-07-27T16:55:34.707Z,0.73
2022-07-27T16:58:13.435Z,0.90
2022-07-27T17:00:41.504Z,0.90
2022-07-27T17:03:09.225Z,0.60
2022-07-27T17:05:39.985Z,0.93
2022-07-27T17:08:10.664Z,0.70
2022-07-27T17:13:18.036Z,0.87
2022-07-27T17:15:47.035Z,0.90
2022-07-27T17:18:16.084Z,0.70
2022-07-27T17:20:43.864Z,0.80
2022-07-27T17:23:11.666Z,0.70
2022-07-27T17:25:40.175Z,0.77
2022-07-27T17:28:07.915Z,1.00
2022-07-27T17:35:25.444Z,0.70
2022-07-27T17:38:08.222Z,1.20
2022-07-27T17:40:43.333Z,0.90
2022-07-27T17:43:12.845Z,0.90
2022-07-27T17:45:40.566Z,0.83
2022-07-27T17:48:28.244Z,0.90
2022-07-27T17:50:57.443Z,1.00
2022-07-27T17:58:29.917Z,0.67
2022-07-27T18:00:58.632Z,1.53
2022-07-27T18:03:26.143Z,0.80
2022-07-27T18:05:54.349Z,0.73
2022-07-27T18:08:22.075Z,0.93
2022-07-27T18:10:51.059Z,0.90
2022-07-27T18:13:20.255Z,0.80
2022-07-27T18:20:54.995Z,0.60
2022-07-27T18:23:25.536Z,1.00
2022-07-27T18:25:53.006Z,0.80
2022-07-27T18:28:20.746Z,1.07
2022-07-27T18:30:51.241Z,0.60
2022-07-27T18:33:19.714Z,0.83
2022-07-27T18:35:47.606Z,1.13
2022-07-27T18:41:06.307Z,0.80
2022-07-27T18:43:35.086Z,0.53
2022-07-27T18:46:03.673Z,0.60
2022-07-27T18:48:34.075Z,0.87
2022-07-27T18:51:03.037Z,0.50
2022-07-27T18:53:30.436Z,0.87
2022-07-27T18:56:07.443Z,0.80
2022-07-27T19:04:21.758Z,0.70
2022-07-27T19:06:53.458Z,0.63
2022-07-27T19:09:21.035Z,0.60
2022-07-27T19:11:48.527Z,0.83
2022-07-27T19:14:17.599Z,1.30
2022-07-27T19:16:45.088Z,0.60
2022-07-27T19:19:15.883Z,0.80
2022-07-27T19:26:15.287Z,0.63
2022-07-27T19:28:43.866Z,0.70
2022-07-27T19:31:23.270Z,0.67
2022-07-27T19:33:52.155Z,0.60
2022-07-27T19:36:20.556Z,0.70
2022-07-27T19:38:48.074Z,0.80
2022-07-27T19:41:16.777Z,0.67
2022-07-27T19:48:34.514Z,0.97
2022-07-27T19:51:06.771Z,0.90
2022-07-27T19:53:35.109Z,0.93
2022-07-27T19:56:02.215Z,0.80
2022-07-27T19:58:31.866Z,0.87
2022-07-27T20:01:00.314Z,0.77
2022-07-27T20:03:31.290Z,0.80
2022-07-27T20:11:17.877Z,0.40
2022-07-27T20:13:45.525Z,0.80
2022-07-27T20:16:14.263Z,0.90
2022-07-27T20:18:42.248Z,1.00
2022-07-27T20:21:22.359Z,0.97
2022-07-27T20:23:52.537Z,0.73
2022-07-27T20:26:29.178Z,0.70
2022-07-27T20:33:59.667Z,0.73
2022-07-27T20:36:26.795Z,0.80
2022-07-27T20:38:55.038Z,0.60
2022-07-27T20:41:24.438Z,0.80
2022-07-27T20:43:51.635Z,0.83
2022-07-27T20:46:20.415Z,0.90
2022-07-27T20:48:48.101Z,1.07
2022-07-27T20:56:21.410Z,0.90
2022-07-27T20:58:49.036Z,0.90
2022-07-27T21:01:19.426Z,1.00
2022-07-27T21:03:46.944Z,0.80
2022-07-27T21:06:15.968Z,1.00
2022-07-27T21:08:46.715Z,0.90
2022-07-27T21:11:14.674Z,0.90
2022-07-27T21:18:47.127Z,0.90
2022-07-27T21:21:17.428Z,1.67
2022-07-27T21:24:02.643Z,0.83
2022-07-27T21:26:31.337Z,1.07
2022-07-27T21:28:59.184Z,1.10
2022-07-27T21:31:29.837Z,0.93
2022-07-27T21:33:58.447Z,1.53
2022-07-27T21:40:46.876Z,0.90
2022-07-27T21:43:16.797Z,1.10
2022-07-27T21:45:47.854Z,1.20
2022-07-27T21:48:18.906Z,0.90
2022-07-27T21:50:47.654Z,1.80
2022-07-27T21:53:15.224Z,0.77
2022-07-27T21:55:43.255Z,0.80
2022-07-27T21:58:12.515Z,1.00
2022-07-27T22:05:22.028Z,0.93
2022-07-27T22:07:49.583Z,0.70
2022-07-27T22:10:17.534Z,0.90
2022-07-27T22:12:44.714Z,0.77
2022-07-27T22:15:20.661Z,1.33
2022-07-27T22:17:50.894Z,1.07
2022-07-27T22:20:20.495Z,0.80
2022-07-27T22:25:28.194Z,1.27
2022-07-27T22:27:55.088Z,0.93
2022-07-27T22:30:23.449Z,0.80
2022-07-27T22:32:51.314Z,1.00
2022-07-27T22:35:18.695Z,1.07
2022-07-27T22:37:47.047Z,1.00
2022-07-27T22:40:14.996Z,0.83
2022-07-27T22:47:47.744Z,0.87
2022-07-27T22:50:18.073Z,1.07
2022-07-27T22:52:46.348Z,1.00
2022-07-27T22:55:13.323Z,1.07
2022-07-27T22:57:40.595Z,1.33
2022-07-27T23:00:13.246Z,1.00
2022-07-27T23:02:40.346Z,1.63
2022-07-27T23:09:30.724Z,1.17
2022-07-27T23:11:58.018Z,1.37
2022-07-27T23:14:26.052Z,0.90
2022-07-27T23:16:53.919Z,1.20
2022-07-27T23:19:21.366Z,1.00
2022-07-27T23:21:49.150Z,1.27
2022-07-27T23:24:19.127Z,1.00
2022-07-27T23:31:27.489Z,1.30
2022-07-27T23:33:54.963Z,1.33
2022-07-27T23:36:22.013Z,0.97
2022-07-27T23:38:49.215Z,1.40
2022-07-27T23:41:18.978Z,0.93
2022-07-27T23:43:46.025Z,1.07
2022-07-27T23:46:13.801Z,0.73
2022-07-27T23:53:48.216Z,0.87
2022-07-27T23:56:16.190Z,1.03
2022-07-27T23:58:44.373Z,1.60
